sensor_id;sensor_type;location;lat;lon;timestamp;temperature;humidity
67557;DHT22;54387;53.526;49.300;2023-06-14T00:01:03;16.40;42.60
67557;DHT22;54387;53.526;49.300;2023-06-14T00:03:32;16.40;42.80
67557;DHT22;54387;53.526;49.300;2023-06-14T00:05:58;16.30;42.80
67557;DHT22;54387;53.526;49.300;2023-06-14T00:08:25;16.30;42.90
67557;DHT22;54387;53.526;49.300;2023-06-14T00:10:52;16.20;42.80
67557;DHT22;54387;53.526;49.300;2023-06-14T00:13:19;16.20;42.90
67557;DHT22;54387;53.526;49.300;2023-06-14T00:15:46;16.10;42.90
67557;DHT22;54387;53.526;49.300;2023-06-14T00:18:13;16.10;43.10
67557;DHT22;54387;53.526;49.300;2023-06-14T00:20:39;16.10;43.20
67557;DHT22;54387;53.526;49.300;2023-06-14T00:23:07;16.10;43.40
67557;DHT22;54387;53.526;49.300;2023-06-14T00:25:33;16.10;43.50
67557;DHT22;54387;53.526;49.300;2023-06-14T00:28:00;16.10;43.70
67557;DHT22;54387;53.526;49.300;2023-06-14T00:30:26;16.20;43.90
67557;DHT22;54387;53.526;49.300;2023-06-14T00:32:56;16.20;44.00
67557;DHT22;54387;53.526;49.300;2023-06-14T00:35:23;16.20;44.00
67557;DHT22;54387;53.526;49.300;2023-06-14T00:37:50;16.20;44.10
67557;DHT22;54387;53.526;49.300;2023-06-14T00:40:16;16.20;44.30
67557;DHT22;54387;53.526;49.300;2023-06-14T00:42:42;16.20;44.30
67557;DHT22;54387;53.526;49.300;2023-06-14T00:45:09;16.30;44.60
67557;DHT22;54387;53.526;49.300;2023-06-14T00:47:37;16.30;45.50
67557;DHT22;54387;53.526;49.300;2023-06-14T00:50:06;16.30;45.70
67557;DHT22;54387;53.526;49.300;2023-06-14T00:52:33;16.30;46.10
67557;DHT22;54387;53.526;49.300;2023-06-14T00:55:00;16.30;46.20
67557;DHT22;54387;53.526;49.300;2023-06-14T00:57:27;16.30;46.10
67557;DHT22;54387;53.526;49.300;2023-06-14T00:59:55;16.30;46.40
67557;DHT22;54387;53.526;49.300;2023-06-14T01:02:21;16.30;46.70
67557;DHT22;54387;53.526;49.300;2023-06-14T01:04:49;16.30;47.60
67557;DHT22;54387;53.526;49.300;2023-06-14T01:13:10;16.30;49.50
67557;DHT22;54387;53.526;49.300;2023-06-14T01:15:39;16.30;49.10
67557;DHT22;54387;53.526;49.300;2023-06-14T01:18:07;16.30;49.20
67557;DHT22;54387;53.526;49.300;2023-06-14T01:20:34;16.30;49.10
67557;DHT22;54387;53.526;49.300;2023-06-14T01:23:03;16.20;48.60
67557;DHT22;54387;53.526;49.300;2023-06-14T01:25:30;16.30;48.30
67557;DHT22;54387;53.526;49.300;2023-06-14T01:27:59;16.30;47.90
67557;DHT22;54387;53.526;49.300;2023-06-14T01:30:26;16.40;47.50
67557;DHT22;54387;53.526;49.300;2023-06-14T01:32:54;16.50;47.20
67557;DHT22;54387;53.526;49.300;2023-06-14T01:35:22;16.50;46.80
67557;DHT22;54387;53.526;49.300;2023-06-14T01:37:49;16.60;46.50
67557;DHT22;54387;53.526;49.300;2023-06-14T01:40:17;16.70;46.30
67557;DHT22;54387;53.526;49.300;2023-06-14T01:42:46;16.80;46.20
67557;DHT22;54387;53.526;49.300;2023-06-14T01:45:14;16.90;45.60
67557;DHT22;54387;53.526;49.300;2023-06-14T01:47:40;16.90;45.10
67557;DHT22;54387;53.526;49.300;2023-06-14T01:50:07;17.00;44.90
67557;DHT22;54387;53.526;49.300;2023-06-14T01:52:33;17.10;44.70
67557;DHT22;54387;53.526;49.300;2023-06-14T01:54:59;17.20;44.50
67557;DHT22;54387;53.526;49.300;2023-06-14T01:57:28;17.20;44.30
67557;DHT22;54387;53.526;49.300;2023-06-14T01:59:55;17.30;44.30
67557;DHT22;54387;53.526;49.300;2023-06-14T02:02:21;17.30;44.30
67557;DHT22;54387;53.526;49.300;2023-06-14T02:04:47;17.40;44.40
67557;DHT22;54387;53.526;49.300;2023-06-14T02:07:14;17.50;44.30
67557;DHT22;54387;53.526;49.300;2023-06-14T02:09:43;17.50;44.30
67557;DHT22;54387;53.526;49.300;2023-06-14T02:12:10;17.60;43.90
67557;DHT22;54387;53.526;49.300;2023-06-14T02:14:37;17.60;43.30
67557;DHT22;54387;53.526;49.300;2023-06-14T02:17:04;17.60;43.00
67557;DHT22;54387;53.526;49.300;2023-06-14T02:19:30;17.60;43.40
67557;DHT22;54387;53.526;49.300;2023-06-14T02:21:56;17.50;44.00
67557;DHT22;54387;53.526;49.300;2023-06-14T02:24:22;17.50;44.20
67557;DHT22;54387;53.526;49.300;2023-06-14T02:26:49;17.40;44.50
67557;DHT22;54387;53.526;49.300;2023-06-14T02:29:16;17.40;44.90
67557;DHT22;54387;53.526;49.300;2023-06-14T02:31:42;17.50;45.30
67557;DHT22;54387;53.526;49.300;2023-06-14T02:34:08;17.40;45.20
67557;DHT22;54387;53.526;49.300;2023-06-14T02:36:35;17.50;45.30
67557;DHT22;54387;53.526;49.300;2023-06-14T02:39:08;17.40;45.50
67557;DHT22;54387;53.526;49.300;2023-06-14T02:41:41;17.40;45.80
67557;DHT22;54387;53.526;49.300;2023-06-14T02:44:09;17.40;45.90
67557;DHT22;54387;53.526;49.300;2023-06-14T02:46:37;17.40;46.10
67557;DHT22;54387;53.526;49.300;2023-06-14T02:49:03;17.40;47.40
67557;DHT22;54387;53.526;49.300;2023-06-14T02:51:29;17.40;46.50
67557;DHT22;54387;53.526;49.300;2023-06-14T02:53:56;17.40;46.50
67557;DHT22;54387;53.526;49.300;2023-06-14T02:56:22;17.40;46.50
67557;DHT22;54387;53.526;49.300;2023-06-14T02:58:48;17.50;46.40
67557;DHT22;54387;53.526;49.300;2023-06-14T03:01:15;17.50;46.20
67557;DHT22;54387;53.526;49.300;2023-06-14T03:03:42;17.50;46.40
67557;DHT22;54387;53.526;49.300;2023-06-14T03:06:09;17.50;46.60
67557;DHT22;54387;53.526;49.300;2023-06-14T03:08:38;17.40;47.20
67557;DHT22;54387;53.526;49.300;2023-06-14T03:11:05;17.30;47.90
67557;DHT22;54387;53.526;49.300;2023-06-14T03:13:32;17.30;48.30
67557;DHT22;54387;53.526;49.300;2023-06-14T03:15:58;17.20;48.80
67557;DHT22;54387;53.526;49.300;2023-06-14T03:18:24;17.20;49.30
67557;DHT22;54387;53.526;49.300;2023-06-14T03:20:52;17.20;49.40
67557;DHT22;54387;53.526;49.300;2023-06-14T03:23:20;17.20;49.80
67557;DHT22;54387;53.526;49.300;2023-06-14T03:25:47;17.20;50.30
67557;DHT22;54387;53.526;49.300;2023-06-14T03:28:13;17.30;50.60
67557;DHT22;54387;53.526;49.300;2023-06-14T03:30:39;17.30;50.30
67557;DHT22;54387;53.526;49.300;2023-06-14T03:33:05;17.40;50.60
67557;DHT22;54387;53.526;49.300;2023-06-14T03:35:32;17.40;50.90
67557;DHT22;54387;53.526;49.300;2023-06-14T03:37:58;17.40;51.80
67557;DHT22;54387;53.526;49.300;2023-06-14T03:40:24;17.50;51.80
67557;DHT22;54387;53.526;49.300;2023-06-14T03:42:55;17.60;51.60
67557;DHT22;54387;53.526;49.300;2023-06-14T03:45:23;17.70;51.40
67557;DHT22;54387;53.526;49.300;2023-06-14T03:47:49;17.70;51.60
67557;DHT22;54387;53.526;49.300;2023-06-14T03:50:17;17.70;51.10
67557;DHT22;54387;53.526;49.300;2023-06-14T03:52:44;17.60;50.90
67557;DHT22;54387;53.526;49.300;2023-06-14T03:55:10;17.60;50.80
67557;DHT22;54387;53.526;49.300;2023-06-14T03:57:39;17.60;50.80
67557;DHT22;54387;53.526;49.300;2023-06-14T04:00:06;17.60;50.90
67557;DHT22;54387;53.526;49.300;2023-06-14T04:02:32;17.60;51.20
67557;DHT22;54387;53.526;49.300;2023-06-14T04:04:58;17.60;51.30
67557;DHT22;54387;53.526;49.300;2023-06-14T04:07:25;17.60;51.70
67557;DHT22;54387;53.526;49.300;2023-06-14T04:09:54;17.60;52.00
67557;DHT22;54387;53.526;49.300;2023-06-14T04:12:21;17.60;52.10
67557;DHT22;54387;53.526;49.300;2023-06-14T04:14:48;17.60;52.40
67557;DHT22;54387;53.526;49.300;2023-06-14T04:17:14;17.60;52.90
67557;DHT22;54387;53.526;49.300;2023-06-14T04:19:44;17.50;53.20
67557;DHT22;54387;53.526;49.300;2023-06-14T04:22:10;17.50;53.70
67557;DHT22;54387;53.526;49.300;2023-06-14T04:24:37;17.40;54.40
67557;DHT22;54387;53.526;49.300;2023-06-14T04:27:03;17.50;54.50
67557;DHT22;54387;53.526;49.300;2023-06-14T04:29:29;17.60;54.40
67557;DHT22;54387;53.526;49.300;2023-06-14T04:31:57;17.70;54.50
67557;DHT22;54387;53.526;49.300;2023-06-14T04:34:26;17.80;54.40
67557;DHT22;54387;53.526;49.300;2023-06-14T04:36:56;17.80;54.00
67557;DHT22;54387;53.526;49.300;2023-06-14T04:39:23;17.80;54.00
67557;DHT22;54387;53.526;49.300;2023-06-14T04:41:49;17.80;53.60
67557;DHT22;54387;53.526;49.300;2023-06-14T04:44:21;17.90;53.30
67557;DHT22;54387;53.526;49.300;2023-06-14T04:46:50;18.00;52.80
67557;DHT22;54387;53.526;49.300;2023-06-14T04:49:17;18.20;53.00
67557;DHT22;54387;53.526;49.300;2023-06-14T04:51:45;18.20;53.20
67557;DHT22;54387;53.526;49.300;2023-06-14T04:54:12;18.20;52.90
67557;DHT22;54387;53.526;49.300;2023-06-14T04:56:40;18.30;52.50
67557;DHT22;54387;53.526;49.300;2023-06-14T04:59:08;18.20;52.00
67557;DHT22;54387;53.526;49.300;2023-06-14T05:01:35;18.20;52.00
67557;DHT22;54387;53.526;49.300;2023-06-14T05:04:02;18.20;52.40
67557;DHT22;54387;53.526;49.300;2023-06-14T05:06:29;18.20;52.40
67557;DHT22;54387;53.526;49.300;2023-06-14T05:08:56;18.10;52.90
67557;DHT22;54387;53.526;49.300;2023-06-14T05:11:23;18.10;53.50
67557;DHT22;54387;53.526;49.300;2023-06-14T05:13:53;18.10;53.90
67557;DHT22;54387;53.526;49.300;2023-06-14T05:16:19;18.20;54.10
67557;DHT22;54387;53.526;49.300;2023-06-14T05:18:46;18.30;54.50
67557;DHT22;54387;53.526;49.300;2023-06-14T05:21:14;18.30;54.30
67557;DHT22;54387;53.526;49.300;2023-06-14T05:23:44;18.40;54.30
67557;DHT22;54387;53.526;49.300;2023-06-14T05:26:11;18.50;54.40
67557;DHT22;54387;53.526;49.300;2023-06-14T05:28:37;18.50;54.60
67557;DHT22;54387;53.526;49.300;2023-06-14T05:31:03;18.50;54.60
67557;DHT22;54387;53.526;49.300;2023-06-14T05:33:29;18.60;54.70
67557;DHT22;54387;53.526;49.300;2023-06-14T05:35:55;18.70;54.70
67557;DHT22;54387;53.526;49.300;2023-06-14T05:38:22;18.70;54.40
67557;DHT22;54387;53.526;49.300;2023-06-14T05:40:48;18.80;54.30
67557;DHT22;54387;53.526;49.300;2023-06-14T05:43:14;18.80;54.00
67557;DHT22;54387;53.526;49.300;2023-06-14T05:45:40;18.90;54.00
67557;DHT22;54387;53.526;49.300;2023-06-14T05:48:06;19.00;53.90
67557;DHT22;54387;53.526;49.300;2023-06-14T05:50:32;19.10;53.20
67557;DHT22;54387;53.526;49.300;2023-06-14T05:52:59;19.20;52.60
67557;DHT22;54387;53.526;49.300;2023-06-14T05:55:25;19.40;52.40
67557;DHT22;54387;53.526;49.300;2023-06-14T05:57:51;19.50;52.30
67557;DHT22;54387;53.526;49.300;2023-06-14T06:00:18;19.70;51.50
67557;DHT22;54387;53.526;49.300;2023-06-14T06:02:45;19.90;50.30
67557;DHT22;54387;53.526;49.300;2023-06-14T06:05:13;20.20;49.90
67557;DHT22;54387;53.526;49.300;2023-06-14T06:07:41;20.50;48.90
67557;DHT22;54387;53.526;49.300;2023-06-14T06:10:08;20.70;47.90
67557;DHT22;54387;53.526;49.300;2023-06-14T06:12:37;20.70;46.90
67557;DHT22;54387;53.526;49.300;2023-06-14T06:15:04;20.80;46.80
67557;DHT22;54387;53.526;49.300;2023-06-14T06:17:30;20.80;46.30
67557;DHT22;54387;53.526;49.300;2023-06-14T06:19:56;20.80;46.10
67557;DHT22;54387;53.526;49.300;2023-06-14T06:22:23;21.00;45.70
67557;DHT22;54387;53.526;49.300;2023-06-14T06:24:49;21.20;45.60
67557;DHT22;54387;53.526;49.300;2023-06-14T06:27:15;21.30;44.80
67557;DHT22;54387;53.526;49.300;2023-06-14T06:29:42;21.40;44.60
67557;DHT22;54387;53.526;49.300;2023-06-14T06:32:09;21.60;44.60
67557;DHT22;54387;53.526;49.300;2023-06-14T06:34:36;21.60;44.00
67557;DHT22;54387;53.526;49.300;2023-06-14T06:37:03;21.60;44.40
67557;DHT22;54387;53.526;49.300;2023-06-14T06:39:29;21.60;44.40
67557;DHT22;54387;53.526;49.300;2023-06-14T06:41:55;21.60;44.30
67557;DHT22;54387;53.526;49.300;2023-06-14T06:44:21;21.60;44.00
67557;DHT22;54387;53.526;49.300;2023-06-14T06:46:48;21.70;44.30
67557;DHT22;54387;53.526;49.300;2023-06-14T06:49:14;21.90;44.40
67557;DHT22;54387;53.526;49.300;2023-06-14T06:51:43;22.00;43.60
67557;DHT22;54387;53.526;49.300;2023-06-14T06:54:10;22.10;43.30
67557;DHT22;54387;53.526;49.300;2023-06-14T06:56:37;22.00;43.00
67557;DHT22;54387;53.526;49.300;2023-06-14T06:59:03;22.10;43.20
67557;DHT22;54387;53.526;49.300;2023-06-14T07:01:29;22.20;43.50
67557;DHT22;54387;53.526;49.300;2023-06-14T07:03:55;22.20;43.70
67557;DHT22;54387;53.526;49.300;2023-06-14T07:06:22;22.30;43.00
67557;DHT22;54387;53.526;49.300;2023-06-14T07:08:48;22.40;42.90
67557;DHT22;54387;53.526;49.300;2023-06-14T07:11:15;22.50;42.70
67557;DHT22;54387;53.526;49.300;2023-06-14T07:13:41;22.50;42.60
67557;DHT22;54387;53.526;49.300;2023-06-14T07:16:07;22.50;42.00
67557;DHT22;54387;53.526;49.300;2023-06-14T07:18:33;22.40;42.20
67557;DHT22;54387;53.526;49.300;2023-06-14T07:21:00;22.40;42.20
67557;DHT22;54387;53.526;49.300;2023-06-14T07:23:26;22.40;41.80
67557;DHT22;54387;53.526;49.300;2023-06-14T07:25:53;22.50;41.70
67557;DHT22;54387;53.526;49.300;2023-06-14T07:28:19;22.50;41.60
67557;DHT22;54387;53.526;49.300;2023-06-14T07:30:45;22.70;41.70
67557;DHT22;54387;53.526;49.300;2023-06-14T07:33:11;22.70;41.40
67557;DHT22;54387;53.526;49.300;2023-06-14T07:35:38;22.60;40.60
67557;DHT22;54387;53.526;49.300;2023-06-14T07:38:04;22.50;40.90
67557;DHT22;54387;53.526;49.300;2023-06-14T07:40:31;22.30;40.90
67557;DHT22;54387;53.526;49.300;2023-06-14T07:42:57;22.30;42.10
67557;DHT22;54387;53.526;49.300;2023-06-14T07:45:24;22.30;41.20
67557;DHT22;54387;53.526;49.300;2023-06-14T07:47:50;22.40;40.80
67557;DHT22;54387;53.526;49.300;2023-06-14T07:50:17;22.60;40.70
67557;DHT22;54387;53.526;49.300;2023-06-14T07:52:44;22.80;40.20
67557;DHT22;54387;53.526;49.300;2023-06-14T07:55:14;22.90;40.10
67557;DHT22;54387;53.526;49.300;2023-06-14T07:57:41;23.00;39.80
67557;DHT22;54387;53.526;49.300;2023-06-14T08:00:09;23.10;39.60
67557;DHT22;54387;53.526;49.300;2023-06-14T08:02:37;23.30;39.40
67557;DHT22;54387;53.526;49.300;2023-06-14T08:05:03;23.40;39.20
67557;DHT22;54387;53.526;49.300;2023-06-14T08:07:30;23.40;39.10
67557;DHT22;54387;53.526;49.300;2023-06-14T08:09:56;23.50;39.20
67557;DHT22;54387;53.526;49.300;2023-06-14T08:12:23;23.40;39.10
67557;DHT22;54387;53.526;49.300;2023-06-14T08:14:49;23.40;39.20
67557;DHT22;54387;53.526;49.300;2023-06-14T08:17:16;23.30;39.10
67557;DHT22;54387;53.526;49.300;2023-06-14T08:19:42;23.20;39.30
67557;DHT22;54387;53.526;49.300;2023-06-14T08:22:08;23.20;39.50
67557;DHT22;54387;53.526;49.300;2023-06-14T08:24:37;23.20;39.80
67557;DHT22;54387;53.526;49.300;2023-06-14T08:27:03;23.30;39.40
67557;DHT22;54387;53.526;49.300;2023-06-14T08:29:29;23.30;39.30
67557;DHT22;54387;53.526;49.300;2023-06-14T08:31:56;23.30;39.50
67557;DHT22;54387;53.526;49.300;2023-06-14T08:34:22;23.20;39.50
67557;DHT22;54387;53.526;49.300;2023-06-14T08:36:52;23.20;39.40
67557;DHT22;54387;53.526;49.300;2023-06-14T08:39:18;23.20;39.30
67557;DHT22;54387;53.526;49.300;2023-06-14T08:41:47;23.20;40.60
67557;DHT22;54387;53.526;49.300;2023-06-14T08:44:16;23.20;39.00
67557;DHT22;54387;53.526;49.300;2023-06-14T08:46:43;23.20;39.50
67557;DHT22;54387;53.526;49.300;2023-06-14T08:49:12;23.20;39.10
67557;DHT22;54387;53.526;49.300;2023-06-14T08:51:40;23.30;38.80
67557;DHT22;54387;53.526;49.300;2023-06-14T08:54:07;23.40;38.50
67557;DHT22;54387;53.526;49.300;2023-06-14T08:56:34;23.40;38.20
67557;DHT22;54387;53.526;49.300;2023-06-14T08:59:04;23.60;38.10
67557;DHT22;54387;53.526;49.300;2023-06-14T09:01:37;23.90;38.10
67557;DHT22;54387;53.526;49.300;2023-06-14T09:04:03;24.40;37.80
67557;DHT22;54387;53.526;49.300;2023-06-14T09:06:34;24.70;37.00
67557;DHT22;54387;53.526;49.300;2023-06-14T09:09:02;24.90;36.40
67557;DHT22;54387;53.526;49.300;2023-06-14T09:11:31;24.90;36.20
67557;DHT22;54387;53.526;49.300;2023-06-14T09:13:57;24.90;36.20
67557;DHT22;54387;53.526;49.300;2023-06-14T09:16:23;24.70;35.70
67557;DHT22;54387;53.526;49.300;2023-06-14T09:18:51;24.60;35.80
67557;DHT22;54387;53.526;49.300;2023-06-14T09:21:17;24.50;36.00
67557;DHT22;54387;53.526;49.300;2023-06-14T09:23:45;24.40;35.90
67557;DHT22;54387;53.526;49.300;2023-06-14T09:26:15;24.30;36.20
67557;DHT22;54387;53.526;49.300;2023-06-14T09:28:49;24.20;36.40
67557;DHT22;54387;53.526;49.300;2023-06-14T09:31:17;24.20;36.70
67557;DHT22;54387;53.526;49.300;2023-06-14T09:33:45;24.30;36.60
67557;DHT22;54387;53.526;49.300;2023-06-14T09:36:21;24.20;36.60
67557;DHT22;54387;53.526;49.300;2023-06-14T09:38:58;24.20;36.70
67557;DHT22;54387;53.526;49.300;2023-06-14T09:44:00;24.10;36.50
67557;DHT22;54387;53.526;49.300;2023-06-14T09:46:30;24.00;36.90
67557;DHT22;54387;53.526;49.300;2023-06-14T09:49:05;23.80;37.70
67557;DHT22;54387;53.526;49.300;2023-06-14T09:51:31;23.60;38.40
67557;DHT22;54387;53.526;49.300;2023-06-14T09:54:02;23.50;38.70
67557;DHT22;54387;53.526;49.300;2023-06-14T09:56:43;23.30;39.50
67557;DHT22;54387;53.526;49.300;2023-06-14T09:59:12;23.20;39.90
67557;DHT22;54387;53.526;49.300;2023-06-14T10:01:45;23.10;40.90
67557;DHT22;54387;53.526;49.300;2023-06-14T10:04:13;23.00;40.90
67557;DHT22;54387;53.526;49.300;2023-06-14T10:06:43;23.00;41.40
67557;DHT22;54387;53.526;49.300;2023-06-14T10:09:12;23.00;42.70
67557;DHT22;54387;53.526;49.300;2023-06-14T10:11:39;23.00;43.20
67557;DHT22;54387;53.526;49.300;2023-06-14T10:14:11;22.80;44.00
67557;DHT22;54387;53.526;49.300;2023-06-14T10:24:37;22.20;48.00
67557;DHT22;54387;53.526;49.300;2023-06-14T10:27:07;22.20;49.10
67557;DHT22;54387;53.526;49.300;2023-06-14T10:32:26;22.30;48.20
67557;DHT22;54387;53.526;49.300;2023-06-14T10:35:09;22.30;46.40
67557;DHT22;54387;53.526;49.300;2023-06-14T10:37:42;22.30;46.10
67557;DHT22;54387;53.526;49.300;2023-06-14T10:40:30;22.40;46.00
67557;DHT22;54387;53.526;49.300;2023-06-14T10:42:56;22.40;45.50
67557;DHT22;54387;53.526;49.300;2023-06-14T10:45:23;22.40;45.20
67557;DHT22;54387;53.526;49.300;2023-06-14T10:47:49;22.50;44.50
67557;DHT22;54387;53.526;49.300;2023-06-14T10:50:28;22.60;43.90
67557;DHT22;54387;53.526;49.300;2023-06-14T10:53:00;22.80;45.20
67557;DHT22;54387;53.526;49.300;2023-06-14T10:55:27;22.90;44.00
67557;DHT22;54387;53.526;49.300;2023-06-14T10:58:00;23.00;45.00
67557;DHT22;54387;53.526;49.300;2023-06-14T11:00:29;23.10;43.90
67557;DHT22;54387;53.526;49.300;2023-06-14T11:05:56;23.60;42.70
67557;DHT22;54387;53.526;49.300;2023-06-14T11:11:32;24.40;40.50
67557;DHT22;54387;53.526;49.300;2023-06-14T11:14:02;24.80;39.30
67557;DHT22;54387;53.526;49.300;2023-06-14T11:16:29;25.20;38.40
67557;DHT22;54387;53.526;49.300;2023-06-14T11:18:55;25.50;37.40
67557;DHT22;54387;53.526;49.300;2023-06-14T11:21:23;25.70;37.20
67557;DHT22;54387;53.526;49.300;2023-06-14T11:23:51;25.90;37.00
67557;DHT22;54387;53.526;49.300;2023-06-14T11:26:29;26.10;37.00
67557;DHT22;54387;53.526;49.300;2023-06-14T11:28:58;26.20;36.60
67557;DHT22;54387;53.526;49.300;2023-06-14T11:31:26;26.00;35.60
67557;DHT22;54387;53.526;49.300;2023-06-14T11:33:57;26.00;35.70
67557;DHT22;54387;53.526;49.300;2023-06-14T11:36:30;25.80;35.60
67557;DHT22;54387;53.526;49.300;2023-06-14T11:38:58;25.70;36.10
67557;DHT22;54387;53.526;49.300;2023-06-14T11:41:25;25.70;36.20
67557;DHT22;54387;53.526;49.300;2023-06-14T11:43:54;25.70;36.00
67557;DHT22;54387;53.526;49.300;2023-06-14T11:46:26;25.60;35.90
67557;DHT22;54387;53.526;49.300;2023-06-14T11:48:53;25.50;36.10
67557;DHT22;54387;53.526;49.300;2023-06-14T11:51:19;25.50;35.80
67557;DHT22;54387;53.526;49.300;2023-06-14T11:53:47;25.60;35.90
67557;DHT22;54387;53.526;49.300;2023-06-14T11:56:14;25.70;35.90
67557;DHT22;54387;53.526;49.300;2023-06-14T11:58:43;26.00;35.60
67557;DHT22;54387;53.526;49.300;2023-06-14T12:01:13;26.20;35.00
67557;DHT22;54387;53.526;49.300;2023-06-14T12:03:48;26.40;35.10
67557;DHT22;54387;53.526;49.300;2023-06-14T12:06:15;26.60;35.00
67557;DHT22;54387;53.526;49.300;2023-06-14T12:08:43;26.70;34.80
67557;DHT22;54387;53.526;49.300;2023-06-14T12:11:16;26.50;34.40
67557;DHT22;54387;53.526;49.300;2023-06-14T12:13:43;26.30;34.50
67557;DHT22;54387;53.526;49.300;2023-06-14T12:16:11;26.00;34.30
67557;DHT22;54387;53.526;49.300;2023-06-14T12:18:40;25.80;34.50
67557;DHT22;54387;53.526;49.300;2023-06-14T12:21:10;25.60;35.10
67557;DHT22;54387;53.526;49.300;2023-06-14T12:23:43;25.40;35.40
67557;DHT22;54387;53.526;49.300;2023-06-14T12:26:18;25.30;35.60
67557;DHT22;54387;53.526;49.300;2023-06-14T12:28:46;25.20;35.90
67557;DHT22;54387;53.526;49.300;2023-06-14T12:31:14;25.20;36.00
67557;DHT22;54387;53.526;49.300;2023-06-14T12:33:41;25.10;36.30
67557;DHT22;54387;53.526;49.300;2023-06-14T12:36:09;25.00;36.60
67557;DHT22;54387;53.526;49.300;2023-06-14T12:38:36;24.90;36.90
67557;DHT22;54387;53.526;49.300;2023-06-14T12:41:04;24.80;37.20
67557;DHT22;54387;53.526;49.300;2023-06-14T12:43:30;24.90;37.30
67557;DHT22;54387;53.526;49.300;2023-06-14T12:45:57;24.90;36.90
67557;DHT22;54387;53.526;49.300;2023-06-14T12:48:23;24.90;37.20
67557;DHT22;54387;53.526;49.300;2023-06-14T12:50:50;24.90;37.30
67557;DHT22;54387;53.526;49.300;2023-06-14T12:53:16;24.90;37.20
67557;DHT22;54387;53.526;49.300;2023-06-14T12:55:43;25.00;37.00
67557;DHT22;54387;53.526;49.300;2023-06-14T12:58:10;25.00;36.90
67557;DHT22;54387;53.526;49.300;2023-06-14T13:00:38;25.00;36.90
67557;DHT22;54387;53.526;49.300;2023-06-14T13:03:05;25.00;36.50
67557;DHT22;54387;53.526;49.300;2023-06-14T13:05:31;24.90;36.90
67557;DHT22;54387;53.526;49.300;2023-06-14T13:08:00;24.80;36.90
67557;DHT22;54387;53.526;49.300;2023-06-14T13:10:26;24.60;37.10
67557;DHT22;54387;53.526;49.300;2023-06-14T13:12:53;24.50;37.30
67557;DHT22;54387;53.526;49.300;2023-06-14T13:15:20;24.40;37.70
67557;DHT22;54387;53.526;49.300;2023-06-14T13:17:46;24.40;37.80
67557;DHT22;54387;53.526;49.300;2023-06-14T13:20:14;24.30;38.20
67557;DHT22;54387;53.526;49.300;2023-06-14T13:22:42;24.20;38.30
67557;DHT22;54387;53.526;49.300;2023-06-14T13:25:08;24.20;38.50
67557;DHT22;54387;53.526;49.300;2023-06-14T13:27:40;24.20;38.60
67557;DHT22;54387;53.526;49.300;2023-06-14T13:30:07;24.30;38.60
67557;DHT22;54387;53.526;49.300;2023-06-14T13:32:33;24.30;38.80
67557;DHT22;54387;53.526;49.300;2023-06-14T13:34:59;24.40;38.70
67557;DHT22;54387;53.526;49.300;2023-06-14T13:37:25;24.40;38.40
67557;DHT22;54387;53.526;49.300;2023-06-14T13:39:51;24.40;38.60
67557;DHT22;54387;53.526;49.300;2023-06-14T13:42:18;24.30;38.60
67557;DHT22;54387;53.526;49.300;2023-06-14T13:44:44;24.30;38.90
67557;DHT22;54387;53.526;49.300;2023-06-14T13:47:10;24.20;39.30
67557;DHT22;54387;53.526;49.300;2023-06-14T13:49:36;24.20;39.40
67557;DHT22;54387;53.526;49.300;2023-06-14T13:52:03;24.20;39.50
67557;DHT22;54387;53.526;49.300;2023-06-14T13:54:29;24.20;39.80
67557;DHT22;54387;53.526;49.300;2023-06-14T13:56:55;24.20;39.90
67557;DHT22;54387;53.526;49.300;2023-06-14T13:59:22;24.20;39.90
67557;DHT22;54387;53.526;49.300;2023-06-14T14:01:49;24.30;39.70
67557;DHT22;54387;53.526;49.300;2023-06-14T14:04:15;24.40;39.50
67557;DHT22;54387;53.526;49.300;2023-06-14T14:06:42;24.50;39.20
67557;DHT22;54387;53.526;49.300;2023-06-14T14:09:08;24.60;39.00
67557;DHT22;54387;53.526;49.300;2023-06-14T14:11:35;24.70;39.00
67557;DHT22;54387;53.526;49.300;2023-06-14T14:14:02;24.70;38.50
67557;DHT22;54387;53.526;49.300;2023-06-14T14:16:29;24.80;38.40
67557;DHT22;54387;53.526;49.300;2023-06-14T14:18:56;25.00;38.40
67557;DHT22;54387;53.526;49.300;2023-06-14T14:21:22;25.30;38.20
67557;DHT22;54387;53.526;49.300;2023-06-14T14:23:48;25.60;37.60
67557;DHT22;54387;53.526;49.300;2023-06-14T14:26:15;25.90;37.00
67557;DHT22;54387;53.526;49.300;2023-06-14T14:28:42;25.90;36.70
67557;DHT22;54387;53.526;49.300;2023-06-14T14:31:08;25.90;36.60
67557;DHT22;54387;53.526;49.300;2023-06-14T14:33:35;25.80;36.70
67557;DHT22;54387;53.526;49.300;2023-06-14T14:36:02;25.60;36.70
67557;DHT22;54387;53.526;49.300;2023-06-14T14:38:34;25.50;37.00
67557;DHT22;54387;53.526;49.300;2023-06-14T14:41:00;25.30;37.00
67557;DHT22;54387;53.526;49.300;2023-06-14T14:43:27;25.20;37.10
67557;DHT22;54387;53.526;49.300;2023-06-14T14:45:56;25.10;37.40
67557;DHT22;54387;53.526;49.300;2023-06-14T14:48:22;25.00;37.80
67557;DHT22;54387;53.526;49.300;2023-06-14T14:50:48;24.80;38.10
67557;DHT22;54387;53.526;49.300;2023-06-14T14:53:14;24.70;38.30
67557;DHT22;54387;53.526;49.300;2023-06-14T14:55:44;24.60;38.60
67557;DHT22;54387;53.526;49.300;2023-06-14T14:58:11;24.40;38.70
67557;DHT22;54387;53.526;49.300;2023-06-14T15:00:38;24.20;38.80
67557;DHT22;54387;53.526;49.300;2023-06-14T15:03:04;24.00;39.30
67557;DHT22;54387;53.526;49.300;2023-06-14T15:05:30;23.90;39.50
67557;DHT22;54387;53.526;49.300;2023-06-14T15:07:56;23.80;39.80
67557;DHT22;54387;53.526;49.300;2023-06-14T15:10:22;23.60;40.20
67557;DHT22;54387;53.526;49.300;2023-06-14T15:12:49;23.50;40.30
67557;DHT22;54387;53.526;49.300;2023-06-14T15:15:15;23.40;40.40
67557;DHT22;54387;53.526;49.300;2023-06-14T15:17:42;23.30;40.70
67557;DHT22;54387;53.526;49.300;2023-06-14T15:20:08;23.20;40.70
67557;DHT22;54387;53.526;49.300;2023-06-14T15:22:34;23.10;41.00
67557;DHT22;54387;53.526;49.300;2023-06-14T15:25:00;23.10;41.20
67557;DHT22;54387;53.526;49.300;2023-06-14T15:27:30;23.00;42.10
67557;DHT22;54387;53.526;49.300;2023-06-14T15:29:56;23.00;41.80
67557;DHT22;54387;53.526;49.300;2023-06-14T15:32:22;22.90;41.90
67557;DHT22;54387;53.526;49.300;2023-06-14T15:34:48;22.90;42.00
67557;DHT22;54387;53.526;49.300;2023-06-14T15:37:14;22.80;42.00
67557;DHT22;54387;53.526;49.300;2023-06-14T15:39:41;22.80;42.10
67557;DHT22;54387;53.526;49.300;2023-06-14T15:42:07;22.70;42.40